sensor_id;sensor_type;location;lat;lon;timestamp;temperature;humidity
17381;DHT22;8808;52.478;13.378;2023-04-26T00:01:34;6.60;99.90
17381;DHT22;8808;52.478;13.378;2023-04-26T00:04:01;6.50;99.90
17381;DHT22;8808;52.478;13.378;2023-04-26T00:06:28;6.30;99.90
17381;DHT22;8808;52.478;13.378;2023-04-26T00:08:55;6.40;99.90
17381;DHT22;8808;52.478;13.378;2023-04-26T00:11:24;6.50;99.90
17381;DHT22;8808;52.478;13.378;2023-04-26T00:13:51;6.50;99.90
17381;DHT22;8808;52.478;13.378;2023-04-26T00:16:18;6.50;99.90
17381;DHT22;8808;52.478;13.378;2023-04-26T00:18:45;6.40;99.90
17381;DHT22;8808;52.478;13.378;2023-04-26T00:21:13;6.40;99.90
17381;DHT22;8808;52.478;13.378;2023-04-26T00:23:41;6.40;99.90
17381;DHT22;8808;52.478;13.378;2023-04-26T00:26:08;6.40;99.90
17381;DHT22;8808;52.478;13.378;2023-04-26T00:28:36;6.40;99.90
17381;DHT22;8808;52.478;13.378;2023-04-26T00:31:03;6.40;99.90
17381;DHT22;8808;52.478;13.378;2023-04-26T00:33:30;6.30;99.90
17381;DHT22;8808;52.478;13.378;2023-04-26T00:35:57;6.30;99.90
17381;DHT22;8808;52.478;13.378;2023-04-26T00:38:24;6.30;99.90
17381;DHT22;8808;52.478;13.378;2023-04-26T00:40:51;6.30;99.90
17381;DHT22;8808;52.478;13.378;2023-04-26T00:43:18;6.30;99.90
17381;DHT22;8808;52.478;13.378;2023-04-26T00:45:46;6.30;99.90
17381;DHT22;8808;52.478;13.378;2023-04-26T00:48:14;6.20;99.90
17381;DHT22;8808;52.478;13.378;2023-04-26T00:50:42;6.20;99.90
17381;DHT22;8808;52.478;13.378;2023-04-26T00:53:09;6.20;99.90
17381;DHT22;8808;52.478;13.378;2023-04-26T00:55:39;6.20;99.90
17381;DHT22;8808;52.478;13.378;2023-04-26T00:58:06;6.10;99.90
17381;DHT22;8808;52.478;13.378;2023-04-26T01:03:13;6.10;99.90
17381;DHT22;8808;52.478;13.378;2023-04-26T01:05:41;6.20;99.90
17381;DHT22;8808;52.478;13.378;2023-04-26T01:08:08;6.00;99.90
17381;DHT22;8808;52.478;13.378;2023-04-26T01:10:36;6.00;99.90
17381;DHT22;8808;52.478;13.378;2023-04-26T01:13:03;6.00;99.90
17381;DHT22;8808;52.478;13.378;2023-04-26T01:15:30;6.00;99.90
17381;DHT22;8808;52.478;13.378;2023-04-26T01:17:58;5.90;99.90
17381;DHT22;8808;52.478;13.378;2023-04-26T01:20:27;5.80;99.90
17381;DHT22;8808;52.478;13.378;2023-04-26T01:22:55;5.80;99.90
17381;DHT22;8808;52.478;13.378;2023-04-26T01:25:22;5.90;99.90
17381;DHT22;8808;52.478;13.378;2023-04-26T01:27:49;5.80;99.90
17381;DHT22;8808;52.478;13.378;2023-04-26T01:30:16;5.80;99.90
17381;DHT22;8808;52.478;13.378;2023-04-26T01:32:43;5.90;99.90
17381;DHT22;8808;52.478;13.378;2023-04-26T01:35:10;5.80;99.90
17381;DHT22;8808;52.478;13.378;2023-04-26T01:37:37;5.80;99.90
17381;DHT22;8808;52.478;13.378;2023-04-26T01:40:07;5.80;99.90
17381;DHT22;8808;52.478;13.378;2023-04-26T01:42:34;5.70;99.90
17381;DHT22;8808;52.478;13.378;2023-04-26T01:45:01;5.70;99.90
17381;DHT22;8808;52.478;13.378;2023-04-26T01:47:28;5.80;99.90
17381;DHT22;8808;52.478;13.378;2023-04-26T01:49:55;5.80;99.90
17381;DHT22;8808;52.478;13.378;2023-04-26T01:52:22;5.80;99.90
17381;DHT22;8808;52.478;13.378;2023-04-26T01:54:49;5.70;99.90
17381;DHT22;8808;52.478;13.378;2023-04-26T01:57:18;5.70;99.90
17381;DHT22;8808;52.478;13.378;2023-04-26T01:59:45;5.70;99.90
17381;DHT22;8808;52.478;13.378;2023-04-26T02:02:12;5.70;99.90
17381;DHT22;8808;52.478;13.378;2023-04-26T02:04:39;5.60;99.90
17381;DHT22;8808;52.478;13.378;2023-04-26T02:07:06;5.60;99.90
17381;DHT22;8808;52.478;13.378;2023-04-26T02:09:33;5.60;99.90
17381;DHT22;8808;52.478;13.378;2023-04-26T02:12:00;5.60;99.90
17381;DHT22;8808;52.478;13.378;2023-04-26T02:14:28;5.60;99.90
17381;DHT22;8808;52.478;13.378;2023-04-26T02:16:55;5.70;99.90
17381;DHT22;8808;52.478;13.378;2023-04-26T02:19:23;5.50;99.90
17381;DHT22;8808;52.478;13.378;2023-04-26T02:21:52;5.50;99.90
17381;DHT22;8808;52.478;13.378;2023-04-26T02:24:19;5.50;99.90
17381;DHT22;8808;52.478;13.378;2023-04-26T02:26:47;5.50;99.90
17381;DHT22;8808;52.478;13.378;2023-04-26T02:29:15;5.50;99.90
17381;DHT22;8808;52.478;13.378;2023-04-26T02:31:43;5.40;99.90
17381;DHT22;8808;52.478;13.378;2023-04-26T02:34:10;5.40;99.90
17381;DHT22;8808;52.478;13.378;2023-04-26T02:36:37;5.20;99.90
17381;DHT22;8808;52.478;13.378;2023-04-26T02:39:05;5.30;99.90
17381;DHT22;8808;52.478;13.378;2023-04-26T02:41:32;5.40;99.90
17381;DHT22;8808;52.478;13.378;2023-04-26T02:43:58;5.30;99.90
17381;DHT22;8808;52.478;13.378;2023-04-26T02:46:26;5.30;99.90
17381;DHT22;8808;52.478;13.378;2023-04-26T02:48:54;5.30;99.90
17381;DHT22;8808;52.478;13.378;2023-04-26T02:51:21;5.30;99.90
17381;DHT22;8808;52.478;13.378;2023-04-26T02:53:48;5.30;99.90
17381;DHT22;8808;52.478;13.378;2023-04-26T02:56:15;5.20;99.90
17381;DHT22;8808;52.478;13.378;2023-04-26T02:58:43;5.20;99.90
17381;DHT22;8808;52.478;13.378;2023-04-26T03:01:11;5.20;99.90
17381;DHT22;8808;52.478;13.378;2023-04-26T03:03:39;5.20;99.90
17381;DHT22;8808;52.478;13.378;2023-04-26T03:06:08;5.10;99.90
17381;DHT22;8808;52.478;13.378;2023-04-26T03:08:35;5.10;99.90
17381;DHT22;8808;52.478;13.378;2023-04-26T03:11:02;5.30;99.90
17381;DHT22;8808;52.478;13.378;2023-04-26T03:13:29;5.20;99.90
17381;DHT22;8808;52.478;13.378;2023-04-26T03:15:56;5.10;99.90
17381;DHT22;8808;52.478;13.378;2023-04-26T03:18:23;5.00;99.90
17381;DHT22;8808;52.478;13.378;2023-04-26T03:20:50;5.10;99.90
17381;DHT22;8808;52.478;13.378;2023-04-26T03:23:19;5.20;99.90
17381;DHT22;8808;52.478;13.378;2023-04-26T03:25:48;5.10;99.90
17381;DHT22;8808;52.478;13.378;2023-04-26T03:28:16;5.10;99.90
17381;DHT22;8808;52.478;13.378;2023-04-26T03:30:43;5.10;99.90
17381;DHT22;8808;52.478;13.378;2023-04-26T03:33:10;5.00;99.90
17381;DHT22;8808;52.478;13.378;2023-04-26T03:35:38;5.00;99.90
17381;DHT22;8808;52.478;13.378;2023-04-26T03:38:04;5.10;99.90
17381;DHT22;8808;52.478;13.378;2023-04-26T03:40:33;5.10;99.90
17381;DHT22;8808;52.478;13.378;2023-04-26T03:43:00;4.90;99.90
17381;DHT22;8808;52.478;13.378;2023-04-26T03:45:27;5.00;99.90
17381;DHT22;8808;52.478;13.378;2023-04-26T03:47:54;4.90;99.90
17381;DHT22;8808;52.478;13.378;2023-04-26T03:50:21;4.90;99.90
17381;DHT22;8808;52.478;13.378;2023-04-26T03:52:48;4.80;99.90
17381;DHT22;8808;52.478;13.378;2023-04-26T03:55:15;4.90;99.90
17381;DHT22;8808;52.478;13.378;2023-04-26T03:57:44;4.80;99.90
17381;DHT22;8808;52.478;13.378;2023-04-26T04:00:12;4.90;99.90
17381;DHT22;8808;52.478;13.378;2023-04-26T04:02:39;4.90;99.90
17381;DHT22;8808;52.478;13.378;2023-04-26T04:05:07;4.80;99.90
17381;DHT22;8808;52.478;13.378;2023-04-26T04:07:34;4.90;99.90
17381;DHT22;8808;52.478;13.378;2023-04-26T04:10:02;5.00;99.90
17381;DHT22;8808;52.478;13.378;2023-04-26T04:12:29;4.80;99.90
17381;DHT22;8808;52.478;13.378;2023-04-26T04:14:57;4.80;99.90
17381;DHT22;8808;52.478;13.378;2023-04-26T04:17:24;4.80;99.90
17381;DHT22;8808;52.478;13.378;2023-04-26T04:19:51;4.80;99.90
17381;DHT22;8808;52.478;13.378;2023-04-26T04:22:18;4.90;99.90
17381;DHT22;8808;52.478;13.378;2023-04-26T04:24:45;4.80;99.90
17381;DHT22;8808;52.478;13.378;2023-04-26T04:27:12;4.80;99.90
17381;DHT22;8808;52.478;13.378;2023-04-26T04:29:39;4.90;99.90
17381;DHT22;8808;52.478;13.378;2023-04-26T04:32:08;4.90;99.90
17381;DHT22;8808;52.478;13.378;2023-04-26T04:34:35;4.80;99.90
17381;DHT22;8808;52.478;13.378;2023-04-26T04:37:02;4.90;99.90
17381;DHT22;8808;52.478;13.378;2023-04-26T04:39:29;5.00;99.90
17381;DHT22;8808;52.478;13.378;2023-04-26T04:41:56;5.00;99.90
17381;DHT22;8808;52.478;13.378;2023-04-26T04:44:25;5.10;99.90
17381;DHT22;8808;52.478;13.378;2023-04-26T04:46:52;5.10;99.90
17381;DHT22;8808;52.478;13.378;2023-04-26T04:49:20;5.20;99.90
17381;DHT22;8808;52.478;13.378;2023-04-26T04:51:49;5.20;99.90
17381;DHT22;8808;52.478;13.378;2023-04-26T04:54:17;5.20;99.90
17381;DHT22;8808;52.478;13.378;2023-04-26T04:56:44;5.50;99.90
17381;DHT22;8808;52.478;13.378;2023-04-26T04:59:11;5.50;99.90
17381;DHT22;8808;52.478;13.378;2023-04-26T05:01:38;5.70;99.90
17381;DHT22;8808;52.478;13.378;2023-04-26T05:04:05;5.80;99.90
17381;DHT22;8808;52.478;13.378;2023-04-26T05:06:34;5.90;99.90
17381;DHT22;8808;52.478;13.378;2023-04-26T05:09:01;6.00;99.90
17381;DHT22;8808;52.478;13.378;2023-04-26T05:11:30;6.20;99.90
17381;DHT22;8808;52.478;13.378;2023-04-26T05:13:56;6.20;99.90
17381;DHT22;8808;52.478;13.378;2023-04-26T05:16:24;6.20;99.90
17381;DHT22;8808;52.478;13.378;2023-04-26T05:18:51;6.50;99.90
17381;DHT22;8808;52.478;13.378;2023-04-26T05:21:17;6.30;99.90
17381;DHT22;8808;52.478;13.378;2023-04-26T05:23:46;6.50;99.90
17381;DHT22;8808;52.478;13.378;2023-04-26T05:26:14;6.60;99.90
17381;DHT22;8808;52.478;13.378;2023-04-26T05:28:41;6.70;99.90
17381;DHT22;8808;52.478;13.378;2023-04-26T05:31:09;6.90;99.90
17381;DHT22;8808;52.478;13.378;2023-04-26T05:33:36;6.90;99.90
17381;DHT22;8808;52.478;13.378;2023-04-26T05:36:04;6.90;99.90
17381;DHT22;8808;52.478;13.378;2023-04-26T05:38:31;7.00;99.90
17381;DHT22;8808;52.478;13.378;2023-04-26T05:40:59;7.10;99.90
17381;DHT22;8808;52.478;13.378;2023-04-26T05:43:26;7.00;99.90
17381;DHT22;8808;52.478;13.378;2023-04-26T05:45:54;7.20;99.90
17381;DHT22;8808;52.478;13.378;2023-04-26T05:48:22;7.10;99.90
17381;DHT22;8808;52.478;13.378;2023-04-26T05:50:50;7.20;99.90
17381;DHT22;8808;52.478;13.378;2023-04-26T05:53:18;7.40;99.90
17381;DHT22;8808;52.478;13.378;2023-04-26T05:55:45;7.50;99.90
17381;DHT22;8808;52.478;13.378;2023-04-26T05:58:13;7.80;99.90
17381;DHT22;8808;52.478;13.378;2023-04-26T06:00:40;7.90;99.90
17381;DHT22;8808;52.478;13.378;2023-04-26T06:03:07;8.30;99.90
17381;DHT22;8808;52.478;13.378;2023-04-26T06:05:35;8.60;99.90
17381;DHT22;8808;52.478;13.378;2023-04-26T06:08:04;8.80;99.90
17381;DHT22;8808;52.478;13.378;2023-04-26T06:10:31;9.60;99.90
17381;DHT22;8808;52.478;13.378;2023-04-26T06:12:57;9.80;99.90
17381;DHT22;8808;52.478;13.378;2023-04-26T06:15:26;9.30;99.90
17381;DHT22;8808;52.478;13.378;2023-04-26T06:17:53;9.10;99.90
17381;DHT22;8808;52.478;13.378;2023-04-26T06:20:20;9.20;99.90
17381;DHT22;8808;52.478;13.378;2023-04-26T06:22:47;9.10;99.90
17381;DHT22;8808;52.478;13.378;2023-04-26T06:25:14;9.20;99.90
17381;DHT22;8808;52.478;13.378;2023-04-26T06:27:41;9.30;99.90
17381;DHT22;8808;52.478;13.378;2023-04-26T06:30:09;9.30;99.90
17381;DHT22;8808;52.478;13.378;2023-04-26T06:32:40;9.70;99.90
17381;DHT22;8808;52.478;13.378;2023-04-26T06:35:08;10.00;99.90
17381;DHT22;8808;52.478;13.378;2023-04-26T06:37:36;9.90;99.90
17381;DHT22;8808;52.478;13.378;2023-04-26T06:40:04;10.00;99.90
17381;DHT22;8808;52.478;13.378;2023-04-26T06:42:31;10.20;99.90
17381;DHT22;8808;52.478;13.378;2023-04-26T06:44:58;10.50;99.90
17381;DHT22;8808;52.478;13.378;2023-04-26T06:47:25;10.60;99.90
17381;DHT22;8808;52.478;13.378;2023-04-26T06:49:53;10.80;99.90
17381;DHT22;8808;52.478;13.378;2023-04-26T06:52:21;10.50;99.90
17381;DHT22;8808;52.478;13.378;2023-04-26T06:54:48;10.30;99.90
17381;DHT22;8808;52.478;13.378;2023-04-26T06:57:15;10.10;99.90
17381;DHT22;8808;52.478;13.378;2023-04-26T06:59:42;10.30;99.90
17381;DHT22;8808;52.478;13.378;2023-04-26T07:02:08;10.10;99.90
17381;DHT22;8808;52.478;13.378;2023-04-26T07:04:35;9.70;99.90
17381;DHT22;8808;52.478;13.378;2023-04-26T07:07:04;9.90;99.90
17381;DHT22;8808;52.478;13.378;2023-04-26T07:09:31;9.90;99.90
17381;DHT22;8808;52.478;13.378;2023-04-26T07:11:58;9.50;99.90
17381;DHT22;8808;52.478;13.378;2023-04-26T07:14:25;10.00;99.90
17381;DHT22;8808;52.478;13.378;2023-04-26T07:16:52;9.40;99.90
17381;DHT22;8808;52.478;13.378;2023-04-26T07:19:19;9.40;99.90
17381;DHT22;8808;52.478;13.378;2023-04-26T07:21:46;9.20;99.90
17381;DHT22;8808;52.478;13.378;2023-04-26T07:24:14;9.50;99.90
17381;DHT22;8808;52.478;13.378;2023-04-26T07:26:41;9.50;99.90
17381;DHT22;8808;52.478;13.378;2023-04-26T07:29:08;9.80;99.90
17381;DHT22;8808;52.478;13.378;2023-04-26T07:31:35;10.40;99.90
17381;DHT22;8808;52.478;13.378;2023-04-26T07:34:02;10.70;99.90
17381;DHT22;8808;52.478;13.378;2023-04-26T07:36:29;10.10;99.90
17381;DHT22;8808;52.478;13.378;2023-04-26T07:38:56;10.40;99.90
17381;DHT22;8808;52.478;13.378;2023-04-26T07:41:24;10.70;99.90
17381;DHT22;8808;52.478;13.378;2023-04-26T07:43:51;10.10;99.90
17381;DHT22;8808;52.478;13.378;2023-04-26T07:46:18;9.70;99.90
17381;DHT22;8808;52.478;13.378;2023-04-26T07:48:45;10.30;99.90
17381;DHT22;8808;52.478;13.378;2023-04-26T07:51:12;10.50;99.90
17381;DHT22;8808;52.478;13.378;2023-04-26T07:53:39;9.80;99.90
17381;DHT22;8808;52.478;13.378;2023-04-26T07:56:07;9.60;99.90
17381;DHT22;8808;52.478;13.378;2023-04-26T07:58:36;9.60;99.90
17381;DHT22;8808;52.478;13.378;2023-04-26T08:01:04;9.50;99.90
17381;DHT22;8808;52.478;13.378;2023-04-26T08:03:32;9.70;99.90
17381;DHT22;8808;52.478;13.378;2023-04-26T08:05:59;9.90;99.90
17381;DHT22;8808;52.478;13.378;2023-04-26T08:08:26;9.70;99.90
17381;DHT22;8808;52.478;13.378;2023-04-26T08:10:54;9.70;99.90
17381;DHT22;8808;52.478;13.378;2023-04-26T08:13:21;10.30;99.90
17381;DHT22;8808;52.478;13.378;2023-04-26T08:15:49;10.30;99.90
17381;DHT22;8808;52.478;13.378;2023-04-26T08:18:16;10.00;99.90
17381;DHT22;8808;52.478;13.378;2023-04-26T08:20:43;9.80;99.90
17381;DHT22;8808;52.478;13.378;2023-04-26T08:23:10;9.30;99.90
17381;DHT22;8808;52.478;13.378;2023-04-26T08:25:37;9.10;99.90
17381;DHT22;8808;52.478;13.378;2023-04-26T08:28:04;9.20;99.90
17381;DHT22;8808;52.478;13.378;2023-04-26T08:30:32;9.60;99.90
17381;DHT22;8808;52.478;13.378;2023-04-26T08:33:01;9.60;99.90
17381;DHT22;8808;52.478;13.378;2023-04-26T08:35:28;9.70;99.90
17381;DHT22;8808;52.478;13.378;2023-04-26T08:37:55;9.80;99.90
17381;DHT22;8808;52.478;13.378;2023-04-26T08:40:23;9.60;99.90
17381;DHT22;8808;52.478;13.378;2023-04-26T08:42:51;9.30;99.90
17381;DHT22;8808;52.478;13.378;2023-04-26T08:45:19;9.40;99.90
17381;DHT22;8808;52.478;13.378;2023-04-26T08:47:47;9.50;99.90
17381;DHT22;8808;52.478;13.378;2023-04-26T08:50:19;9.10;99.90
17381;DHT22;8808;52.478;13.378;2023-04-26T08:52:48;9.10;99.90
17381;DHT22;8808;52.478;13.378;2023-04-26T08:55:16;9.30;99.90
17381;DHT22;8808;52.478;13.378;2023-04-26T08:57:45;10.10;99.90
17381;DHT22;8808;52.478;13.378;2023-04-26T09:00:13;10.60;99.90
17381;DHT22;8808;52.478;13.378;2023-04-26T09:02:43;11.00;99.90
17381;DHT22;8808;52.478;13.378;2023-04-26T09:05:11;11.00;99.90
17381;DHT22;8808;52.478;13.378;2023-04-26T09:07:42;10.60;99.50
17381;DHT22;8808;52.478;13.378;2023-04-26T09:10:10;10.70;99.00
17381;DHT22;8808;52.478;13.378;2023-04-26T09:12:38;10.70;99.00
17381;DHT22;8808;52.478;13.378;2023-04-26T09:15:06;10.50;98.20
17381;DHT22;8808;52.478;13.378;2023-04-26T09:17:35;10.40;98.80
17381;DHT22;8808;52.478;13.378;2023-04-26T09:20:18;10.50;99.50
17381;DHT22;8808;52.478;13.378;2023-04-26T09:22:47;10.70;99.90
17381;DHT22;8808;52.478;13.378;2023-04-26T09:25:16;10.80;98.20
17381;DHT22;8808;52.478;13.378;2023-04-26T09:27:44;10.60;97.80
17381;DHT22;8808;52.478;13.378;2023-04-26T09:30:13;10.50;99.40
17381;DHT22;8808;52.478;13.378;2023-04-26T09:32:50;10.20;98.70
17381;DHT22;8808;52.478;13.378;2023-04-26T09:35:27;10.30;99.60
17381;DHT22;8808;52.478;13.378;2023-04-26T09:37:57;10.30;98.30
17381;DHT22;8808;52.478;13.378;2023-04-26T09:40:28;10.30;99.90
17381;DHT22;8808;52.478;13.378;2023-04-26T09:43:02;10.40;98.40
17381;DHT22;8808;52.478;13.378;2023-04-26T09:45:31;10.00;99.20
17381;DHT22;8808;52.478;13.378;2023-04-26T09:48:18;10.10;99.90
17381;DHT22;8808;52.478;13.378;2023-04-26T09:50:47;10.80;99.90
17381;DHT22;8808;52.478;13.378;2023-04-26T09:53:27;11.60;98.50
17381;DHT22;8808;52.478;13.378;2023-04-26T09:55:55;12.00;98.20
17381;DHT22;8808;52.478;13.378;2023-04-26T09:58:22;12.30;96.50
17381;DHT22;8808;52.478;13.378;2023-04-26T10:00:50;12.30;98.20
17381;DHT22;8808;52.478;13.378;2023-04-26T10:03:17;12.30;94.20
17381;DHT22;8808;52.478;13.378;2023-04-26T10:05:45;11.60;93.90
17381;DHT22;8808;52.478;13.378;2023-04-26T10:08:12;11.20;93.80
17381;DHT22;8808;52.478;13.378;2023-04-26T10:10:41;11.20;94.60
17381;DHT22;8808;52.478;13.378;2023-04-26T10:13:08;11.20;95.00
17381;DHT22;8808;52.478;13.378;2023-04-26T10:15:38;11.30;93.10
17381;DHT22;8808;52.478;13.378;2023-04-26T10:18:06;11.10;93.90
17381;DHT22;8808;52.478;13.378;2023-04-26T10:20:34;11.20;91.50
17381;DHT22;8808;52.478;13.378;2023-04-26T10:23:08;11.60;92.30
17381;DHT22;8808;52.478;13.378;2023-04-26T10:25:40;11.90;89.20
17381;DHT22;8808;52.478;13.378;2023-04-26T10:28:07;11.40;90.70
17381;DHT22;8808;52.478;13.378;2023-04-26T10:30:53;11.20;91.10
17381;DHT22;8808;52.478;13.378;2023-04-26T10:33:20;10.80;91.60
17381;DHT22;8808;52.478;13.378;2023-04-26T10:36:08;10.80;91.90
17381;DHT22;8808;52.478;13.378;2023-04-26T10:38:37;10.50;92.30
17381;DHT22;8808;52.478;13.378;2023-04-26T10:41:30;10.60;92.00
17381;DHT22;8808;52.478;13.378;2023-04-26T10:43:59;10.30;92.40
17381;DHT22;8808;52.478;13.378;2023-04-26T10:46:39;10.20;93.20
17381;DHT22;8808;52.478;13.378;2023-04-26T10:49:16;10.30;92.90
17381;DHT22;8808;52.478;13.378;2023-04-26T10:52:08;10.40;92.50
17381;DHT22;8808;52.478;13.378;2023-04-26T10:54:53;10.40;92.20
17381;DHT22;8808;52.478;13.378;2023-04-26T10:57:23;10.70;92.50
17381;DHT22;8808;52.478;13.378;2023-04-26T11:03:03;10.70;91.70
17381;DHT22;8808;52.478;13.378;2023-04-26T11:05:38;10.70;91.80
17381;DHT22;8808;52.478;13.378;2023-04-26T11:08:14;10.60;91.40
17381;DHT22;8808;52.478;13.378;2023-04-26T11:10:41;10.40;91.50
17381;DHT22;8808;52.478;13.378;2023-04-26T11:13:11;10.30;92.10
17381;DHT22;8808;52.478;13.378;2023-04-26T11:15:37;10.40;92.20
17381;DHT22;8808;52.478;13.378;2023-04-26T11:18:05;10.30;91.60
17381;DHT22;8808;52.478;13.378;2023-04-26T11:20:33;10.30;91.70
17381;DHT22;8808;52.478;13.378;2023-04-26T11:23:00;10.40;91.60
17381;DHT22;8808;52.478;13.378;2023-04-26T11:25:28;10.60;92.60
17381;DHT22;8808;52.478;13.378;2023-04-26T11:27:57;10.70;93.40
17381;DHT22;8808;52.478;13.378;2023-04-26T11:30:27;10.70;91.60
17381;DHT22;8808;52.478;13.378;2023-04-26T11:32:54;10.90;90.50
17381;DHT22;8808;52.478;13.378;2023-04-26T11:35:21;11.10;91.70
17381;DHT22;8808;52.478;13.378;2023-04-26T11:37:50;11.20;91.80
17381;DHT22;8808;52.478;13.378;2023-04-26T11:40:18;11.30;90.50
17381;DHT22;8808;52.478;13.378;2023-04-26T11:42:45;11.10;91.10
17381;DHT22;8808;52.478;13.378;2023-04-26T11:45:14;10.90;91.00
17381;DHT22;8808;52.478;13.378;2023-04-26T11:47:44;10.80;90.70
17381;DHT22;8808;52.478;13.378;2023-04-26T11:50:12;10.80;92.30
17381;DHT22;8808;52.478;13.378;2023-04-26T11:52:39;10.70;91.90
17381;DHT22;8808;52.478;13.378;2023-04-26T11:55:08;10.50;93.00
17381;DHT22;8808;52.478;13.378;2023-04-26T11:57:35;10.40;93.00
17381;DHT22;8808;52.478;13.378;2023-04-26T12:00:13;10.30;93.10
17381;DHT22;8808;52.478;13.378;2023-04-26T12:02:45;10.40;94.10
17381;DHT22;8808;52.478;13.378;2023-04-26T12:05:20;10.40;92.80
17381;DHT22;8808;52.478;13.378;2023-04-26T12:07:51;10.70;92.30
17381;DHT22;8808;52.478;13.378;2023-04-26T12:10:23;10.90;91.70
17381;DHT22;8808;52.478;13.378;2023-04-26T12:12:50;10.90;91.60
17381;DHT22;8808;52.478;13.378;2023-04-26T12:15:21;11.10;91.10
17381;DHT22;8808;52.478;13.378;2023-04-26T12:17:54;11.30;91.50
17381;DHT22;8808;52.478;13.378;2023-04-26T12:20:29;11.80;91.60
17381;DHT22;8808;52.478;13.378;2023-04-26T12:23:04;11.60;88.50
17381;DHT22;8808;52.478;13.378;2023-04-26T12:25:32;11.40;88.00
17381;DHT22;8808;52.478;13.378;2023-04-26T12:28:00;11.20;88.50
17381;DHT22;8808;52.478;13.378;2023-04-26T12:30:28;11.00;90.90
17381;DHT22;8808;52.478;13.378;2023-04-26T12:32:56;10.80;90.60
17381;DHT22;8808;52.478;13.378;2023-04-26T12:35:24;10.70;92.20
17381;DHT22;8808;52.478;13.378;2023-04-26T12:37:51;10.60;91.90
17381;DHT22;8808;52.478;13.378;2023-04-26T12:40:21;10.60;92.70
17381;DHT22;8808;52.478;13.378;2023-04-26T12:42:49;10.60;93.60
17381;DHT22;8808;52.478;13.378;2023-04-26T12:45:17;10.50;93.20
17381;DHT22;8808;52.478;13.378;2023-04-26T12:47:44;10.30;91.90
17381;DHT22;8808;52.478;13.378;2023-04-26T12:50:13;10.50;92.40
17381;DHT22;8808;52.478;13.378;2023-04-26T12:52:42;10.70;92.80
17381;DHT22;8808;52.478;13.378;2023-04-26T12:55:10;11.10;92.60
17381;DHT22;8808;52.478;13.378;2023-04-26T12:57:38;11.40;92.60
17381;DHT22;8808;52.478;13.378;2023-04-26T13:00:08;11.70;91.10
17381;DHT22;8808;52.478;13.378;2023-04-26T13:02:36;12.00;90.90
17381;DHT22;8808;52.478;13.378;2023-04-26T13:05:04;11.80;90.00
17381;DHT22;8808;52.478;13.378;2023-04-26T13:07:33;11.70;89.30
17381;DHT22;8808;52.478;13.378;2023-04-26T13:10:01;11.70;90.30
17381;DHT22;8808;52.478;13.378;2023-04-26T13:12:28;11.90;88.30
17381;DHT22;8808;52.478;13.378;2023-04-26T13:14:55;12.30;84.20
17381;DHT22;8808;52.478;13.378;2023-04-26T13:17:23;12.50;85.70
17381;DHT22;8808;52.478;13.378;2023-04-26T13:19:50;12.60;84.60
17381;DHT22;8808;52.478;13.378;2023-04-26T13:22:19;12.20;86.00
17381;DHT22;8808;52.478;13.378;2023-04-26T13:24:47;12.50;85.70
17381;DHT22;8808;52.478;13.378;2023-04-26T13:27:14;12.30;86.00
17381;DHT22;8808;52.478;13.378;2023-04-26T13:29:41;12.30;88.30
17381;DHT22;8808;52.478;13.378;2023-04-26T13:32:08;12.20;84.40
17381;DHT22;8808;52.478;13.378;2023-04-26T13:34:35;11.90;84.40
17381;DHT22;8808;52.478;13.378;2023-04-26T13:37:02;11.90;86.40
17381;DHT22;8808;52.478;13.378;2023-04-26T13:39:29;11.90;83.30
17381;DHT22;8808;52.478;13.378;2023-04-26T13:41:58;11.70;85.30
17381;DHT22;8808;52.478;13.378;2023-04-26T13:44:26;11.70;83.60
17381;DHT22;8808;52.478;13.378;2023-04-26T13:46:54;11.60;86.20
17381;DHT22;8808;52.478;13.378;2023-04-26T13:49:22;11.50;84.80
17381;DHT22;8808;52.478;13.378;2023-04-26T13:51:51;11.30;85.40
17381;DHT22;8808;52.478;13.378;2023-04-26T13:54:18;11.10;87.50
17381;DHT22;8808;52.478;13.378;2023-04-26T13:56:46;11.10;87.50
17381;DHT22;8808;52.478;13.378;2023-04-26T13:59:14;11.00;88.40
17381;DHT22;8808;52.478;13.378;2023-04-26T14:01:42;11.20;87.20
17381;DHT22;8808;52.478;13.378;2023-04-26T14:04:09;11.40;86.70
17381;DHT22;8808;52.478;13.378;2023-04-26T14:06:36;11.70;87.30
17381;DHT22;8808;52.478;13.378;2023-04-26T14:09:03;11.70;86.20
17381;DHT22;8808;52.478;13.378;2023-04-26T14:11:31;11.60;86.10
17381;DHT22;8808;52.478;13.378;2023-04-26T14:13:58;11.40;86.30
17381;DHT22;8808;52.478;13.378;2023-04-26T14:16:26;11.30;85.90
17381;DHT22;8808;52.478;13.378;2023-04-26T14:18:53;11.30;86.80
17381;DHT22;8808;52.478;13.378;2023-04-26T14:21:20;11.30;86.50
17381;DHT22;8808;52.478;13.378;2023-04-26T14:23:47;11.40;86.30
17381;DHT22;8808;52.478;13.378;2023-04-26T14:26:14;11.50;87.10
17381;DHT22;8808;52.478;13.378;2023-04-26T14:28:42;11.60;86.50
17381;DHT22;8808;52.478;13.378;2023-04-26T14:31:09;11.50;85.50
17381;DHT22;8808;52.478;13.378;2023-04-26T14:33:38;11.80;87.10
17381;DHT22;8808;52.478;13.378;2023-04-26T14:36:06;12.00;85.50
17381;DHT22;8808;52.478;13.378;2023-04-26T14:38:33;12.00;84.40
17381;DHT22;8808;52.478;13.378;2023-04-26T14:41:00;11.80;86.00
17381;DHT22;8808;52.478;13.378;2023-04-26T14:43:27;12.00;86.20
17381;DHT22;8808;52.478;13.378;2023-04-26T14:45:54;11.90;85.70
17381;DHT22;8808;52.478;13.378;2023-04-26T14:48:21;11.60;86.30
17381;DHT22;8808;52.478;13.378;2023-04-26T14:50:57;11.40;85.60
17381;DHT22;8808;52.478;13.378;2023-04-26T14:53:24;11.30;86.80
17381;DHT22;8808;52.478;13.378;2023-04-26T14:55:54;11.30;86.50
17381;DHT22;8808;52.478;13.378;2023-04-26T14:58:20;11.20;88.10
17381;DHT22;8808;52.478;13.378;2023-04-26T15:00:47;11.20;86.10
17381;DHT22;8808;52.478;13.378;2023-04-26T15:03:14;11.30;87.60
17381;DHT22;8808;52.478;13.378;2023-04-26T15:05:41;11.30;86.50
17381;DHT22;8808;52.478;13.378;2023-04-26T15:08:10;11.30;85.50
17381;DHT22;8808;52.478;13.378;2023-04-26T15:10:37;11.40;86.70
17381;DHT22;8808;52.478;13.378;2023-04-26T15:13:04;11.70;88.20
17381;DHT22;8808;52.478;13.378;2023-04-26T15:15:30;11.70;84.90
17381;DHT22;8808;52.478;13.378;2023-04-26T15:17:58;11.70;85.70
17381;DHT22;8808;52.478;13.378;2023-04-26T15:20:25;11.70;86.80
17381;DHT22;8808;52.478;13.378;2023-04-26T15:22:52;11.50;86.20
17381;DHT22;8808;52.478;13.378;2023-04-26T15:25:20;11.60;86.70
17381;DHT22;8808;52.478;13.378;2023-04-26T15:27:47;11.70;87.20
17381;DHT22;8808;52.478;13.378;2023-04-26T15:30:14;11.80;86.30
17381;DHT22;8808;52.478;13.378;2023-04-26T15:32:41;11.50;86.30
17381;DHT22;8808;52.478;13.378;2023-04-26T15:35:11;11.60;85.70
17381;DHT22;8808;52.478;13.378;2023-04-26T15:37:39;11.40;84.90
17381;DHT22;8808;52.478;13.378;2023-04-26T15:40:07;11.30;84.80
17381;DHT22;8808;52.478;13.378;2023-04-26T15:42:36;11.50;85.90
17381;DHT22;8808;52.478;13.378;2023-04-26T15:45:04;11.50;84.80
17381;DHT22;8808;52.478;13.378;2023-04-26T15:47:33;11.50;85.10
17381;DHT22;8808;52.478;13.378;2023-04-26T15:50:00;11.40;82.80